sensor_id;sensor_type;location;lat;lon;timestamp;P1;durP1;ratioP1;P2;durP2;ratioP2
52368;SDS011;38298;50.346;3.526;2023-07-28T00:02:14;4.88;;;1.80;;
52368;SDS011;38298;50.346;3.526;2023-07-28T00:04:40;2.42;;;1.95;;
52368;SDS011;38298;50.346;3.526;2023-07-28T00:07:06;2.25;;;1.42;;
52368;SDS011;38298;50.346;3.526;2023-07-28T00:09:32;4.72;;;1.77;;
52368;SDS011;38298;50.346;3.526;2023-07-28T00:11:58;6.38;;;1.90;;
52368;SDS011;38298;50.346;3.526;2023-07-28T00:14:25;3.58;;;1.88;;
52368;SDS011;38298;50.346;3.526;2023-07-28T00:16:51;2.97;;;1.60;;
52368;SDS011;38298;50.346;3.526;2023-07-28T00:19:18;2.30;;;1.90;;
52368;SDS011;38298;50.346;3.526;2023-07-28T00:21:44;3.70;;;1.85;;
52368;SDS011;38298;50.346;3.526;2023-07-28T00:24:10;3.92;;;1.95;;
52368;SDS011;38298;50.346;3.526;2023-07-28T00:26:36;5.32;;;1.58;;
52368;SDS011;38298;50.346;3.526;2023-07-28T00:29:02;6.55;;;1.70;;
52368;SDS011;38298;50.346;3.526;2023-07-28T00:31:31;1.92;;;1.77;;
52368;SDS011;38298;50.346;3.526;2023-07-28T00:33:57;5.95;;;1.60;;
52368;SDS011;38298;50.346;3.526;2023-07-28T00:36:23;2.28;;;1.60;;
52368;SDS011;38298;50.346;3.526;2023-07-28T00:38:49;5.10;;;1.80;;
52368;SDS011;38298;50.346;3.526;2023-07-28T00:41:15;3.92;;;1.70;;
52368;SDS011;38298;50.346;3.526;2023-07-28T00:43:41;7.28;;;1.80;;
52368;SDS011;38298;50.346;3.526;2023-07-28T00:46:07;5.13;;;1.55;;
52368;SDS011;38298;50.346;3.526;2023-07-28T00:48:33;2.88;;;1.83;;
52368;SDS011;38298;50.346;3.526;2023-07-28T00:50:59;9.90;;;1.70;;
52368;SDS011;38298;50.346;3.526;2023-07-28T00:53:26;2.83;;;1.75;;
52368;SDS011;38298;50.346;3.526;2023-07-28T00:55:52;4.40;;;1.77;;
52368;SDS011;38298;50.346;3.526;2023-07-28T00:58:18;2.88;;;1.52;;
52368;SDS011;38298;50.346;3.526;2023-07-28T01:00:44;4.82;;;1.80;;
52368;SDS011;38298;50.346;3.526;2023-07-28T01:03:10;4.65;;;1.35;;
52368;SDS011;38298;50.346;3.526;2023-07-28T01:10:55;4.32;;;1.52;;
52368;SDS011;38298;50.346;3.526;2023-07-28T01:13:21;4.25;;;1.70;;
52368;SDS011;38298;50.346;3.526;2023-07-28T01:15:47;3.53;;;1.70;;
52368;SDS011;38298;50.346;3.526;2023-07-28T01:18:13;3.72;;;1.58;;
52368;SDS011;38298;50.346;3.526;2023-07-28T01:20:40;3.42;;;1.80;;
52368;SDS011;38298;50.346;3.526;2023-07-28T01:23:19;2.97;;;1.50;;
52368;SDS011;38298;50.346;3.526;2023-07-28T01:28:23;5.03;;;1.88;;
52368;SDS011;38298;50.346;3.526;2023-07-28T01:30:50;4.18;;;1.70;;
52368;SDS011;38298;50.346;3.526;2023-07-28T01:33:16;2.92;;;1.73;;
52368;SDS011;38298;50.346;3.526;2023-07-28T01:35:42;2.97;;;1.92;;
52368;SDS011;38298;50.346;3.526;2023-07-28T01:38:08;6.43;;;2.58;;
52368;SDS011;38298;50.346;3.526;2023-07-28T01:40:34;5.88;;;1.85;;
52368;SDS011;38298;50.346;3.526;2023-07-28T01:43:00;2.58;;;1.80;;
52368;SDS011;38298;50.346;3.526;2023-07-28T01:45:26;8.48;;;1.92;;
52368;SDS011;38298;50.346;3.526;2023-07-28T01:47:52;4.28;;;1.70;;
52368;SDS011;38298;50.346;3.526;2023-07-28T01:50:18;6.40;;;1.92;;
52368;SDS011;38298;50.346;3.526;2023-07-28T01:52:44;5.25;;;2.00;;
52368;SDS011;38298;50.346;3.526;2023-07-28T01:55:10;4.55;;;1.50;;
52368;SDS011;38298;50.346;3.526;2023-07-28T01:57:38;3.25;;;1.50;;
52368;SDS011;38298;50.346;3.526;2023-07-28T02:00:04;2.72;;;1.73;;
52368;SDS011;38298;50.346;3.526;2023-07-28T02:02:31;3.88;;;2.08;;
52368;SDS011;38298;50.346;3.526;2023-07-28T02:04:56;4.80;;;1.70;;
52368;SDS011;38298;50.346;3.526;2023-07-28T02:07:22;2.70;;;1.50;;
52368;SDS011;38298;50.346;3.526;2023-07-28T02:09:49;2.50;;;1.58;;
52368;SDS011;38298;50.346;3.526;2023-07-28T02:12:15;2.17;;;1.60;;
52368;SDS011;38298;50.346;3.526;2023-07-28T02:14:41;4.85;;;1.58;;
52368;SDS011;38298;50.346;3.526;2023-07-28T02:17:07;2.10;;;1.60;;
52368;SDS011;38298;50.346;3.526;2023-07-28T02:19:33;3.83;;;1.52;;
52368;SDS011;38298;50.346;3.526;2023-07-28T02:21:59;4.97;;;1.55;;
52368;SDS011;38298;50.346;3.526;2023-07-28T02:24:25;1.40;;;1.27;;
52368;SDS011;38298;50.346;3.526;2023-07-28T02:26:51;7.10;;;1.75;;
52368;SDS011;38298;50.346;3.526;2023-07-28T02:29:19;4.97;;;1.40;;
52368;SDS011;38298;50.346;3.526;2023-07-28T02:31:45;3.45;;;1.48;;
52368;SDS011;38298;50.346;3.526;2023-07-28T02:34:11;5.15;;;1.88;;
52368;SDS011;38298;50.346;3.526;2023-07-28T02:36:37;1.23;;;1.13;;
52368;SDS011;38298;50.346;3.526;2023-07-28T02:39:03;4.32;;;1.45;;
52368;SDS011;38298;50.346;3.526;2023-07-28T02:41:29;3.30;;;1.30;;
52368;SDS011;38298;50.346;3.526;2023-07-28T02:43:55;3.90;;;1.92;;
52368;SDS011;38298;50.346;3.526;2023-07-28T02:46:21;2.45;;;1.30;;
52368;SDS011;38298;50.346;3.526;2023-07-28T02:48:47;5.20;;;1.40;;
52368;SDS011;38298;50.346;3.526;2023-07-28T02:51:13;4.45;;;1.40;;
52368;SDS011;38298;50.346;3.526;2023-07-28T02:53:39;10.75;;;1.45;;
52368;SDS011;38298;50.346;3.526;2023-07-28T02:56:05;2.47;;;1.30;;
52368;SDS011;38298;50.346;3.526;2023-07-28T02:58:31;3.45;;;1.25;;
52368;SDS011;38298;50.346;3.526;2023-07-28T03:00:57;2.10;;;1.40;;
52368;SDS011;38298;50.346;3.526;2023-07-28T03:03:24;2.88;;;1.77;;
52368;SDS011;38298;50.346;3.526;2023-07-28T03:05:51;1.75;;;1.40;;
52368;SDS011;38298;50.346;3.526;2023-07-28T03:08:18;5.28;;;1.50;;
52368;SDS011;38298;50.346;3.526;2023-07-28T03:10:44;2.65;;;1.30;;
52368;SDS011;38298;50.346;3.526;2023-07-28T03:13:10;2.83;;;1.60;;
52368;SDS011;38298;50.346;3.526;2023-07-28T03:15:36;2.75;;;1.30;;
52368;SDS011;38298;50.346;3.526;2023-07-28T03:18:02;4.90;;;1.58;;
52368;SDS011;38298;50.346;3.526;2023-07-28T03:20:28;2.85;;;1.50;;
52368;SDS011;38298;50.346;3.526;2023-07-28T03:22:54;10.88;;;1.80;;
52368;SDS011;38298;50.346;3.526;2023-07-28T03:25:20;9.95;;;1.52;;
52368;SDS011;38298;50.346;3.526;2023-07-28T03:27:46;3.67;;;1.35;;
52368;SDS011;38298;50.346;3.526;2023-07-28T03:30:13;1.75;;;1.63;;
52368;SDS011;38298;50.346;3.526;2023-07-28T03:32:39;6.38;;;1.90;;
52368;SDS011;38298;50.346;3.526;2023-07-28T03:35:05;5.38;;;1.50;;
52368;SDS011;38298;50.346;3.526;2023-07-28T03:37:32;1.63;;;1.40;;
52368;SDS011;38298;50.346;3.526;2023-07-28T03:39:58;3.33;;;1.70;;
52368;SDS011;38298;50.346;3.526;2023-07-28T03:42:24;4.47;;;1.75;;
52368;SDS011;38298;50.346;3.526;2023-07-28T03:44:50;4.57;;;1.58;;
52368;SDS011;38298;50.346;3.526;2023-07-28T03:47:16;3.88;;;1.83;;
52368;SDS011;38298;50.346;3.526;2023-07-28T03:49:42;7.55;;;1.50;;
52368;SDS011;38298;50.346;3.526;2023-07-28T03:52:08;5.18;;;1.77;;
52368;SDS011;38298;50.346;3.526;2023-07-28T03:54:34;2.00;;;1.63;;
52368;SDS011;38298;50.346;3.526;2023-07-28T03:57:00;7.57;;;2.20;;
52368;SDS011;38298;50.346;3.526;2023-07-28T03:59:26;6.05;;;1.90;;
52368;SDS011;38298;50.346;3.526;2023-07-28T04:01:52;4.93;;;2.10;;
52368;SDS011;38298;50.346;3.526;2023-07-28T04:04:18;6.72;;;2.25;;
52368;SDS011;38298;50.346;3.526;2023-07-28T04:09:11;9.57;;;2.50;;
52368;SDS011;38298;50.346;3.526;2023-07-28T04:11:37;3.28;;;2.28;;
52368;SDS011;38298;50.346;3.526;2023-07-28T04:14:03;7.20;;;2.40;;
52368;SDS011;38298;50.346;3.526;2023-07-28T04:16:29;4.88;;;2.15;;
52368;SDS011;38298;50.346;3.526;2023-07-28T04:18:55;7.07;;;2.33;;
52368;SDS011;38298;50.346;3.526;2023-07-28T04:21:21;8.45;;;3.03;;
52368;SDS011;38298;50.346;3.526;2023-07-28T04:23:47;5.32;;;2.25;;
52368;SDS011;38298;50.346;3.526;2023-07-28T04:26:13;3.60;;;2.20;;
52368;SDS011;38298;50.346;3.526;2023-07-28T04:28:39;7.07;;;2.42;;
52368;SDS011;38298;50.346;3.526;2023-07-28T04:31:05;9.35;;;2.53;;
52368;SDS011;38298;50.346;3.526;2023-07-28T04:33:31;12.43;;;2.70;;
52368;SDS011;38298;50.346;3.526;2023-07-28T04:35:57;3.60;;;2.28;;
52368;SDS011;38298;50.346;3.526;2023-07-28T04:38:23;8.88;;;2.53;;
52368;SDS011;38298;50.346;3.526;2023-07-28T04:40:49;4.93;;;2.50;;
52368;SDS011;38298;50.346;3.526;2023-07-28T04:43:15;8.40;;;2.42;;
52368;SDS011;38298;50.346;3.526;2023-07-28T04:45:41;3.63;;;2.28;;
52368;SDS011;38298;50.346;3.526;2023-07-28T04:48:07;3.13;;;2.40;;
52368;SDS011;38298;50.346;3.526;2023-07-28T04:50:33;4.75;;;2.15;;
52368;SDS011;38298;50.346;3.526;2023-07-28T04:52:59;8.30;;;2.20;;
52368;SDS011;38298;50.346;3.526;2023-07-28T04:55:25;5.30;;;2.35;;
52368;SDS011;38298;50.346;3.526;2023-07-28T04:57:52;5.55;;;2.58;;
52368;SDS011;38298;50.346;3.526;2023-07-28T05:00:18;5.97;;;2.70;;
52368;SDS011;38298;50.346;3.526;2023-07-28T05:02:44;4.85;;;2.35;;
52368;SDS011;38298;50.346;3.526;2023-07-28T05:05:10;5.00;;;2.17;;
52368;SDS011;38298;50.346;3.526;2023-07-28T05:07:36;6.00;;;2.55;;
52368;SDS011;38298;50.346;3.526;2023-07-28T05:10:02;5.93;;;2.38;;
52368;SDS011;38298;50.346;3.526;2023-07-28T05:12:28;10.75;;;2.88;;
52368;SDS011;38298;50.346;3.526;2023-07-28T05:14:54;5.97;;;2.13;;
52368;SDS011;38298;50.346;3.526;2023-07-28T05:17:21;6.63;;;2.47;;
52368;SDS011;38298;50.346;3.526;2023-07-28T05:19:46;3.30;;;2.28;;
52368;SDS011;38298;50.346;3.526;2023-07-28T05:22:12;5.05;;;2.20;;
52368;SDS011;38298;50.346;3.526;2023-07-28T05:24:38;3.22;;;2.35;;
52368;SDS011;38298;50.346;3.526;2023-07-28T05:27:04;3.22;;;2.05;;
52368;SDS011;38298;50.346;3.526;2023-07-28T05:29:30;5.57;;;2.20;;
52368;SDS011;38298;50.346;3.526;2023-07-28T05:31:58;4.88;;;2.13;;
52368;SDS011;38298;50.346;3.526;2023-07-28T05:34:27;2.13;;;1.88;;
52368;SDS011;38298;50.346;3.526;2023-07-28T05:36:53;3.13;;;2.30;;
52368;SDS011;38298;50.346;3.526;2023-07-28T05:39:21;5.20;;;2.53;;
52368;SDS011;38298;50.346;3.526;2023-07-28T05:41:47;6.10;;;2.75;;
52368;SDS011;38298;50.346;3.526;2023-07-28T05:44:14;4.78;;;2.10;;
52368;SDS011;38298;50.346;3.526;2023-07-28T05:46:52;3.03;;;2.08;;
52368;SDS011;38298;50.346;3.526;2023-07-28T05:49:18;2.75;;;2.15;;
52368;SDS011;38298;50.346;3.526;2023-07-28T05:51:44;3.60;;;2.25;;
52368;SDS011;38298;50.346;3.526;2023-07-28T05:54:11;6.47;;;2.00;;
52368;SDS011;38298;50.346;3.526;2023-07-28T05:56:39;2.60;;;2.05;;
52368;SDS011;38298;50.346;3.526;2023-07-28T05:59:05;7.78;;;2.50;;
52368;SDS011;38298;50.346;3.526;2023-07-28T06:01:31;6.30;;;1.90;;
52368;SDS011;38298;50.346;3.526;2023-07-28T06:03:58;2.40;;;1.95;;
52368;SDS011;38298;50.346;3.526;2023-07-28T06:06:27;3.35;;;1.90;;
52368;SDS011;38298;50.346;3.526;2023-07-28T06:08:53;4.78;;;1.90;;
52368;SDS011;38298;50.346;3.526;2023-07-28T06:11:20;2.40;;;1.90;;
52368;SDS011;38298;50.346;3.526;2023-07-28T06:13:46;2.90;;;1.70;;
52368;SDS011;38298;50.346;3.526;2023-07-28T06:16:13;2.75;;;2.08;;
52368;SDS011;38298;50.346;3.526;2023-07-28T06:18:39;2.50;;;1.80;;
52368;SDS011;38298;50.346;3.526;2023-07-28T06:21:05;2.40;;;1.50;;
52368;SDS011;38298;50.346;3.526;2023-07-28T06:23:31;3.28;;;1.85;;
52368;SDS011;38298;50.346;3.526;2023-07-28T06:25:57;1.65;;;1.50;;
52368;SDS011;38298;50.346;3.526;2023-07-28T06:28:23;4.35;;;1.60;;
52368;SDS011;38298;50.346;3.526;2023-07-28T06:30:55;8.52;;;1.70;;
52368;SDS011;38298;50.346;3.526;2023-07-28T06:33:21;3.40;;;1.80;;
52368;SDS011;38298;50.346;3.526;2023-07-28T06:35:47;2.15;;;1.90;;
52368;SDS011;38298;50.346;3.526;2023-07-28T06:38:13;6.10;;;1.70;;
52368;SDS011;38298;50.346;3.526;2023-07-28T06:40:39;3.20;;;1.88;;
52368;SDS011;38298;50.346;3.526;2023-07-28T06:43:05;6.20;;;1.80;;
52368;SDS011;38298;50.346;3.526;2023-07-28T06:45:32;7.78;;;1.70;;
52368;SDS011;38298;50.346;3.526;2023-07-28T06:47:58;2.85;;;1.48;;
52368;SDS011;38298;50.346;3.526;2023-07-28T06:50:24;7.80;;;1.80;;
52368;SDS011;38298;50.346;3.526;2023-07-28T06:52:50;3.53;;;1.75;;
52368;SDS011;38298;50.346;3.526;2023-07-28T06:55:17;1.77;;;1.50;;
52368;SDS011;38298;50.346;3.526;2023-07-28T06:57:44;4.43;;;1.75;;
52368;SDS011;38298;50.346;3.526;2023-07-28T07:00:10;1.98;;;1.67;;
52368;SDS011;38298;50.346;3.526;2023-07-28T07:02:36;3.28;;;1.50;;
52368;SDS011;38298;50.346;3.526;2023-07-28T07:05:02;1.80;;;1.38;;
52368;SDS011;38298;50.346;3.526;2023-07-28T07:07:28;4.60;;;1.50;;
52368;SDS011;38298;50.346;3.526;2023-07-28T07:09:54;4.63;;;2.03;;
52368;SDS011;38298;50.346;3.526;2023-07-28T07:12:20;2.80;;;1.60;;
52368;SDS011;38298;50.346;3.526;2023-07-28T07:14:46;2.97;;;1.25;;
52368;SDS011;38298;50.346;3.526;2023-07-28T07:17:12;1.58;;;1.33;;
52368;SDS011;38298;50.346;3.526;2023-07-28T07:19:40;2.17;;;1.20;;
52368;SDS011;38298;50.346;3.526;2023-07-28T07:22:06;2.70;;;1.15;;
52368;SDS011;38298;50.346;3.526;2023-07-28T07:24:32;2.22;;;1.27;;
52368;SDS011;38298;50.346;3.526;2023-07-28T07:26:58;3.38;;;1.20;;
52368;SDS011;38298;50.346;3.526;2023-07-28T07:29:24;1.45;;;1.10;;
52368;SDS011;38298;50.346;3.526;2023-07-28T07:31:50;1.10;;;0.90;;
52368;SDS011;38298;50.346;3.526;2023-07-28T07:34:20;1.52;;;1.10;;
52368;SDS011;38298;50.346;3.526;2023-07-28T07:36:46;4.07;;;1.02;;
52368;SDS011;38298;50.346;3.526;2023-07-28T07:39:12;5.55;;;1.00;;
52368;SDS011;38298;50.346;3.526;2023-07-28T07:41:38;2.53;;;1.00;;
52368;SDS011;38298;50.346;3.526;2023-07-28T07:44:04;4.55;;;0.93;;
52368;SDS011;38298;50.346;3.526;2023-07-28T07:46:30;2.15;;;1.00;;
52368;SDS011;38298;50.346;3.526;2023-07-28T07:48:56;2.88;;;0.93;;
52368;SDS011;38298;50.346;3.526;2023-07-28T07:51:22;2.28;;;1.08;;
52368;SDS011;38298;50.346;3.526;2023-07-28T07:53:48;4.03;;;0.60;;
52368;SDS011;38298;50.346;3.526;2023-07-28T07:56:14;0.60;;;0.22;;
52368;SDS011;38298;50.346;3.526;2023-07-28T07:58:40;1.73;;;0.40;;
52368;SDS011;38298;50.346;3.526;2023-07-28T08:01:06;0.43;;;0.30;;
52368;SDS011;38298;50.346;3.526;2023-07-28T08:03:32;0.30;;;0.25;;
52368;SDS011;38298;50.346;3.526;2023-07-28T08:05:58;0.63;;;0.30;;
52368;SDS011;38298;50.346;3.526;2023-07-28T08:08:24;4.22;;;0.30;;
52368;SDS011;38298;50.346;3.526;2023-07-28T08:10:52;2.95;;;0.20;;
52368;SDS011;38298;50.346;3.526;2023-07-28T08:13:18;1.65;;;0.30;;
52368;SDS011;38298;50.346;3.526;2023-07-28T08:15:44;0.35;;;0.30;;
52368;SDS011;38298;50.346;3.526;2023-07-28T08:18:13;1.90;;;0.52;;
52368;SDS011;38298;50.346;3.526;2023-07-28T08:20:39;0.60;;;0.30;;
52368;SDS011;38298;50.346;3.526;2023-07-28T08:23:05;3.72;;;0.30;;
52368;SDS011;38298;50.346;3.526;2023-07-28T08:25:31;1.27;;;1.08;;
52368;SDS011;38298;50.346;3.526;2023-07-28T08:27:59;1.00;;;0.70;;
52368;SDS011;38298;50.346;3.526;2023-07-28T08:30:25;0.88;;;0.85;;
52368;SDS011;38298;50.346;3.526;2023-07-28T08:32:51;4.75;;;1.38;;
52368;SDS011;38298;50.346;3.526;2023-07-28T08:35:17;1.85;;;1.08;;
52368;SDS011;38298;50.346;3.526;2023-07-28T08:37:43;4.47;;;0.80;;
52368;SDS011;38298;50.346;3.526;2023-07-28T08:40:09;1.02;;;0.60;;
52368;SDS011;38298;50.346;3.526;2023-07-28T08:42:37;2.58;;;0.73;;
52368;SDS011;38298;50.346;3.526;2023-07-28T08:45:03;0.65;;;0.40;;
52368;SDS011;38298;50.346;3.526;2023-07-28T08:47:30;1.27;;;0.70;;
52368;SDS011;38298;50.346;3.526;2023-07-28T08:49:57;1.52;;;0.68;;
52368;SDS011;38298;50.346;3.526;2023-07-28T08:52:22;1.50;;;0.70;;
52368;SDS011;38298;50.346;3.526;2023-07-28T08:54:49;1.90;;;0.93;;
52368;SDS011;38298;50.346;3.526;2023-07-28T08:57:15;3.53;;;1.00;;
52368;SDS011;38298;50.346;3.526;2023-07-28T08:59:41;1.33;;;0.88;;
52368;SDS011;38298;50.346;3.526;2023-07-28T09:02:13;2.10;;;0.68;;
52368;SDS011;38298;50.346;3.526;2023-07-28T09:04:41;1.35;;;0.68;;
52368;SDS011;38298;50.346;3.526;2023-07-28T09:07:07;2.53;;;0.90;;
52368;SDS011;38298;50.346;3.526;2023-07-28T09:09:33;1.35;;;0.60;;
52368;SDS011;38298;50.346;3.526;2023-07-28T09:11:59;6.13;;;0.60;;
52368;SDS011;38298;50.346;3.526;2023-07-28T09:14:26;2.55;;;0.60;;
52368;SDS011;38298;50.346;3.526;2023-07-28T09:16:52;2.22;;;0.80;;
52368;SDS011;38298;50.346;3.526;2023-07-28T09:19:19;2.03;;;0.70;;
52368;SDS011;38298;50.346;3.526;2023-07-28T09:21:47;2.88;;;0.60;;
52368;SDS011;38298;50.346;3.526;2023-07-28T09:24:22;3.17;;;0.90;;
52368;SDS011;38298;50.346;3.526;2023-07-28T09:26:48;2.22;;;0.80;;
52368;SDS011;38298;50.346;3.526;2023-07-28T09:29:16;1.05;;;0.70;;
52368;SDS011;38298;50.346;3.526;2023-07-28T09:31:47;6.32;;;0.55;;
52368;SDS011;38298;50.346;3.526;2023-07-28T09:34:13;1.17;;;0.65;;
52368;SDS011;38298;50.346;3.526;2023-07-28T09:36:48;4.57;;;1.02;;
52368;SDS011;38298;50.346;3.526;2023-07-28T09:39:14;1.98;;;0.60;;
52368;SDS011;38298;50.346;3.526;2023-07-28T09:41:41;1.15;;;0.60;;
52368;SDS011;38298;50.346;3.526;2023-07-28T09:44:08;0.40;;;0.40;;
52368;SDS011;38298;50.346;3.526;2023-07-28T09:46:34;0.57;;;0.40;;
52368;SDS011;38298;50.346;3.526;2023-07-28T09:49:03;0.50;;;0.40;;
52368;SDS011;38298;50.346;3.526;2023-07-28T09:51:30;0.73;;;0.30;;
52368;SDS011;38298;50.346;3.526;2023-07-28T09:54:40;1.33;;;0.50;;
52368;SDS011;38298;50.346;3.526;2023-07-28T09:56:50;0.63;;;0.40;;
52368;SDS011;38298;50.346;3.526;2023-07-28T09:59:16;2.72;;;0.43;;
52368;SDS011;38298;50.346;3.526;2023-07-28T10:01:43;4.75;;;0.47;;
52368;SDS011;38298;50.346;3.526;2023-07-28T10:04:10;5.78;;;0.90;;
52368;SDS011;38298;50.346;3.526;2023-07-28T10:06:36;3.30;;;1.38;;
52368;SDS011;38298;50.346;3.526;2023-07-28T10:09:03;0.90;;;0.60;;
52368;SDS011;38298;50.346;3.526;2023-07-28T10:11:30;0.85;;;0.50;;
52368;SDS011;38298;50.346;3.526;2023-07-28T10:13:57;1.92;;;0.90;;
52368;SDS011;38298;50.346;3.526;2023-07-28T10:16:30;3.20;;;0.90;;
52368;SDS011;38298;50.346;3.526;2023-07-28T10:18:58;2.78;;;0.70;;
52368;SDS011;38298;50.346;3.526;2023-07-28T10:21:26;0.93;;;0.73;;
52368;SDS011;38298;50.346;3.526;2023-07-28T10:23:56;1.67;;;0.65;;
52368;SDS011;38298;50.346;3.526;2023-07-28T10:26:35;2.55;;;0.82;;
52368;SDS011;38298;50.346;3.526;2023-07-28T10:29:07;2.88;;;0.70;;
52368;SDS011;38298;50.346;3.526;2023-07-28T10:31:34;1.13;;;0.60;;
52368;SDS011;38298;50.346;3.526;2023-07-28T10:34:00;4.00;;;0.90;;
52368;SDS011;38298;50.346;3.526;2023-07-28T10:41:30;1.95;;;0.90;;
52368;SDS011;38298;50.346;3.526;2023-07-28T10:43:56;2.33;;;1.30;;
52368;SDS011;38298;50.346;3.526;2023-07-28T10:46:22;1.92;;;0.82;;
52368;SDS011;38298;50.346;3.526;2023-07-28T10:48:49;1.63;;;1.08;;
52368;SDS011;38298;50.346;3.526;2023-07-28T10:53:51;1.77;;;0.95;;
52368;SDS011;38298;50.346;3.526;2023-07-28T10:56:17;6.17;;;1.43;;
52368;SDS011;38298;50.346;3.526;2023-07-28T10:58:44;6.13;;;1.17;;
52368;SDS011;38298;50.346;3.526;2023-07-28T11:01:10;4.20;;;1.10;;
52368;SDS011;38298;50.346;3.526;2023-07-28T11:03:36;1.67;;;0.90;;
52368;SDS011;38298;50.346;3.526;2023-07-28T11:06:03;2.33;;;0.80;;
52368;SDS011;38298;50.346;3.526;2023-07-28T11:08:29;2.50;;;1.00;;
52368;SDS011;38298;50.346;3.526;2023-07-28T11:10:55;1.38;;;0.75;;
52368;SDS011;38298;50.346;3.526;2023-07-28T11:13:21;5.00;;;0.70;;
52368;SDS011;38298;50.346;3.526;2023-07-28T11:15:49;3.10;;;0.70;;
52368;SDS011;38298;50.346;3.526;2023-07-28T11:18:15;1.40;;;0.85;;
52368;SDS011;38298;50.346;3.526;2023-07-28T11:20:42;2.85;;;1.10;;
52368;SDS011;38298;50.346;3.526;2023-07-28T11:23:09;1.75;;;0.90;;
52368;SDS011;38298;50.346;3.526;2023-07-28T11:25:35;4.47;;;1.10;;
52368;SDS011;38298;50.346;3.526;2023-07-28T11:28:03;1.73;;;0.98;;
52368;SDS011;38298;50.346;3.526;2023-07-28T11:30:32;0.80;;;0.68;;
52368;SDS011;38298;50.346;3.526;2023-07-28T11:33:02;2.75;;;0.80;;
52368;SDS011;38298;50.346;3.526;2023-07-28T11:35:28;0.70;;;0.68;;
52368;SDS011;38298;50.346;3.526;2023-07-28T11:37:54;0.70;;;0.70;;
52368;SDS011;38298;50.346;3.526;2023-07-28T11:40:21;0.93;;;0.60;;
52368;SDS011;38298;50.346;3.526;2023-07-28T11:42:51;4.22;;;1.13;;
52368;SDS011;38298;50.346;3.526;2023-07-28T11:45:19;0.77;;;0.77;;
52368;SDS011;38298;50.346;3.526;2023-07-28T11:47:52;1.95;;;0.70;;
52368;SDS011;38298;50.346;3.526;2023-07-28T11:50:25;1.70;;;0.90;;
52368;SDS011;38298;50.346;3.526;2023-07-28T11:52:52;2.55;;;0.73;;
52368;SDS011;38298;50.346;3.526;2023-07-28T11:55:18;1.15;;;0.77;;
52368;SDS011;38298;50.346;3.526;2023-07-28T11:57:44;2.65;;;1.00;;
52368;SDS011;38298;50.346;3.526;2023-07-28T12:00:10;0.52;;;0.52;;
52368;SDS011;38298;50.346;3.526;2023-07-28T12:02:37;2.28;;;1.65;;
52368;SDS011;38298;50.346;3.526;2023-07-28T12:05:11;1.52;;;0.90;;
52368;SDS011;38298;50.346;3.526;2023-07-28T12:07:37;1.05;;;0.70;;
52368;SDS011;38298;50.346;3.526;2023-07-28T12:10:03;1.52;;;0.90;;
52368;SDS011;38298;50.346;3.526;2023-07-28T12:12:38;2.80;;;0.60;;
52368;SDS011;38298;50.346;3.526;2023-07-28T12:15:17;0.70;;;0.47;;
52368;SDS011;38298;50.346;3.526;2023-07-28T12:17:59;1.13;;;0.55;;
52368;SDS011;38298;50.346;3.526;2023-07-28T12:20:25;2.50;;;1.00;;
52368;SDS011;38298;50.346;3.526;2023-07-28T12:22:51;3.13;;;0.82;;
52368;SDS011;38298;50.346;3.526;2023-07-28T12:25:17;2.70;;;0.75;;
52368;SDS011;38298;50.346;3.526;2023-07-28T12:27:44;1.83;;;0.65;;
52368;SDS011;38298;50.346;3.526;2023-07-28T12:30:10;1.50;;;0.57;;
52368;SDS011;38298;50.346;3.526;2023-07-28T12:32:36;2.40;;;0.60;;
52368;SDS011;38298;50.346;3.526;2023-07-28T12:35:02;1.77;;;0.60;;
52368;SDS011;38298;50.346;3.526;2023-07-28T12:37:28;3.20;;;0.40;;
52368;SDS011;38298;50.346;3.526;2023-07-28T12:39:54;2.80;;;0.60;;
52368;SDS011;38298;50.346;3.526;2023-07-28T12:42:20;0.50;;;0.50;;
52368;SDS011;38298;50.346;3.526;2023-07-28T12:44:46;1.88;;;0.70;;
52368;SDS011;38298;50.346;3.526;2023-07-28T12:47:12;4.50;;;0.60;;
52368;SDS011;38298;50.346;3.526;2023-07-28T12:49:38;3.30;;;0.70;;
52368;SDS011;38298;50.346;3.526;2023-07-28T12:52:05;2.05;;;0.95;;
52368;SDS011;38298;50.346;3.526;2023-07-28T12:54:34;2.13;;;0.80;;
52368;SDS011;38298;50.346;3.526;2023-07-28T12:57:00;1.48;;;0.82;;
52368;SDS011;38298;50.346;3.526;2023-07-28T12:59:27;0.60;;;0.60;;
52368;SDS011;38298;50.346;3.526;2023-07-28T13:01:54;2.08;;;0.85;;
52368;SDS011;38298;50.346;3.526;2023-07-28T13:04:20;1.48;;;1.05;;
52368;SDS011;38298;50.346;3.526;2023-07-28T13:06:46;3.45;;;1.23;;
52368;SDS011;38298;50.346;3.526;2023-07-28T13:09:12;2.03;;;0.90;;
52368;SDS011;38298;50.346;3.526;2023-07-28T13:11:38;0.55;;;0.45;;
52368;SDS011;38298;50.346;3.526;2023-07-28T13:14:04;1.10;;;0.60;;
52368;SDS011;38298;50.346;3.526;2023-07-28T13:16:30;0.65;;;0.40;;
52368;SDS011;38298;50.346;3.526;2023-07-28T13:18:57;7.38;;;0.80;;
52368;SDS011;38298;50.346;3.526;2023-07-28T13:21:24;2.67;;;0.60;;
52368;SDS011;38298;50.346;3.526;2023-07-28T13:23:50;1.73;;;0.80;;
52368;SDS011;38298;50.346;3.526;2023-07-28T13:26:16;5.47;;;1.00;;
52368;SDS011;38298;50.346;3.526;2023-07-28T13:28:42;2.00;;;0.70;;
52368;SDS011;38298;50.346;3.526;2023-07-28T13:31:12;3.33;;;0.63;;
52368;SDS011;38298;50.346;3.526;2023-07-28T13:33:38;1.15;;;0.70;;
52368;SDS011;38298;50.346;3.526;2023-07-28T13:36:04;0.68;;;0.63;;
52368;SDS011;38298;50.346;3.526;2023-07-28T13:38:32;2.47;;;0.70;;
52368;SDS011;38298;50.346;3.526;2023-07-28T13:40:58;0.60;;;0.50;;
52368;SDS011;38298;50.346;3.526;2023-07-28T13:43:24;1.58;;;0.60;;
52368;SDS011;38298;50.346;3.526;2023-07-28T13:45:50;1.23;;;0.60;;
52368;SDS011;38298;50.346;3.526;2023-07-28T13:48:16;0.90;;;0.60;;
52368;SDS011;38298;50.346;3.526;2023-07-28T13:50:42;0.98;;;0.90;;
52368;SDS011;38298;50.346;3.526;2023-07-28T13:53:09;3.83;;;1.00;;
52368;SDS011;38298;50.346;3.526;2023-07-28T13:55:35;0.65;;;0.60;;
52368;SDS011;38298;50.346;3.526;2023-07-28T13:58:01;0.95;;;0.85;;
52368;SDS011;38298;50.346;3.526;2023-07-28T14:00:27;2.42;;;1.02;;
52368;SDS011;38298;50.346;3.526;2023-07-28T14:02:53;1.75;;;1.10;;
52368;SDS011;38298;50.346;3.526;2023-07-28T14:05:19;1.52;;;1.30;;
52368;SDS011;38298;50.346;3.526;2023-07-28T14:07:45;1.17;;;1.02;;
52368;SDS011;38298;50.346;3.526;2023-07-28T14:10:11;5.43;;;1.33;;
52368;SDS011;38298;50.346;3.526;2023-07-28T14:12:37;7.88;;;1.73;;
52368;SDS011;38298;50.346;3.526;2023-07-28T14:15:07;0.98;;;0.90;;
52368;SDS011;38298;50.346;3.526;2023-07-28T14:17:33;0.95;;;0.90;;
52368;SDS011;38298;50.346;3.526;2023-07-28T14:19:59;1.20;;;0.98;;
52368;SDS011;38298;50.346;3.526;2023-07-28T14:22:25;2.00;;;1.05;;
52368;SDS011;38298;50.346;3.526;2023-07-28T14:24:51;3.20;;;1.75;;
52368;SDS011;38298;50.346;3.526;2023-07-28T14:27:17;2.72;;;0.82;;
52368;SDS011;38298;50.346;3.526;2023-07-28T14:29:43;1.20;;;0.90;;
52368;SDS011;38298;50.346;3.526;2023-07-28T14:32:09;2.20;;;1.30;;
52368;SDS011;38298;50.346;3.526;2023-07-28T14:34:35;1.25;;;1.00;;
52368;SDS011;38298;50.346;3.526;2023-07-28T14:37:03;0.73;;;0.73;;
52368;SDS011;38298;50.346;3.526;2023-07-28T14:39:30;1.17;;;0.90;;
52368;SDS011;38298;50.346;3.526;2023-07-28T14:41:56;3.45;;;1.00;;
52368;SDS011;38298;50.346;3.526;2023-07-28T14:44:22;1.00;;;0.90;;
52368;SDS011;38298;50.346;3.526;2023-07-28T14:46:48;1.63;;;0.82;;
52368;SDS011;38298;50.346;3.526;2023-07-28T14:49:14;1.00;;;0.90;;
52368;SDS011;38298;50.346;3.526;2023-07-28T14:51:40;0.75;;;0.65;;
52368;SDS011;38298;50.346;3.526;2023-07-28T14:54:06;1.15;;;0.80;;
52368;SDS011;38298;50.346;3.526;2023-07-28T14:56:32;0.90;;;0.80;;
52368;SDS011;38298;50.346;3.526;2023-07-28T14:58:58;0.70;;;0.60;;
52368;SDS011;38298;50.346;3.526;2023-07-28T15:01:28;0.60;;;0.60;;
52368;SDS011;38298;50.346;3.526;2023-07-28T15:03:54;0.93;;;0.90;;